Time;durP1;ratioP1;P1;durP2;ratioP2;P2;SDS_P1;SDS_P2;PMS_P1;PMS_P2;Temp;Humidity;BMP_temperature;BMP_pressure;BME280_temperature;BME280_humidity;BME280_pressure;Samples;Min_cycle;Max_cycle;Signal;HPM_P1;HPM_P2
2021/03/17 00:03:53;;;;;;;5.90;2.40;;;;;;;;;;10579881;27;20271;-72
2021/03/17 00:08:55;;;;;;;7.97;3.00;;;;;;;;;;10559967;27;20199;-72
2021/03/17 00:13:57;;;;;;;9.77;4.00;;;;;;;;;;10579077;27;20211;-71
2021/03/17 00:18:59;;;;;;;7.27;3.70;;;;;;;;;;10575134;27;20272;-72
2021/03/17 00:24:00;;;;;;;9.57;4.03;;;;;;;;;;10574423;27;20712;-69
2021/03/17 00:29:03;;;;;;;7.80;3.30;;;;;;;;;;10569549;27;20627;-69
2021/03/17 00:34:05;;;;;;;7.80;3.73;;;;;;;;;;10576882;27;20231;-70
2021/03/17 00:39:06;;;;;;;8.13;3.43;;;;;;;;;;10574508;27;20317;-72
2021/03/17 00:44:09;;;;;;;9.27;4.00;;;;;;;;;;10565800;27;20225;-72
2021/03/17 00:49:10;;;;;;;10.23;3.77;;;;;;;;;;10558283;27;20253;-71
2021/03/17 00:54:12;;;;;;;8.13;3.70;;;;;;;;;;10570683;27;20259;-70
2021/03/17 00:59:14;;;;;;;7.90;3.83;;;;;;;;;;10569261;27;20304;-70
2021/03/17 01:04:16;;;;;;;8.53;3.60;;;;;;;;;;10576584;27;20300;-71
2021/03/17 01:09:17;;;;;;;7.73;3.87;;;;;;;;;;10575676;27;20219;-71
2021/03/17 01:14:21;;;;;;;9.17;4.47;;;;;;;;;;10576073;27;20255;-70
2021/03/17 01:19:22;;;;;;;10.20;4.80;;;;;;;;;;10575393;27;20215;-70
2021/03/17 01:24:24;;;;;;;9.83;5.07;;;;;;;;;;10587324;27;20243;-71
2021/03/17 01:29:26;;;;;;;9.10;5.00;;;;;;;;;;10557444;27;20684;-72
2021/03/17 01:34:28;;;;;;;10.43;4.90;;;;;;;;;;10574227;27;20647;-72
2021/03/17 01:39:29;;;;;;;9.20;5.10;;;;;;;;;;10571875;27;20299;-72
2021/03/17 01:44:32;;;;;;;10.30;5.27;;;;;;;;;;10565890;28;20221;-72
2021/03/17 01:49:33;;;;;;;10.10;5.37;;;;;;;;;;10564053;27;20627;-72
2021/03/17 01:54:35;;;;;;;5.97;3.03;;;;;;;;;;10578969;27;20226;-72
2021/03/17 01:59:37;;;;;;;7.10;3.03;;;;;;;;;;10556464;28;20297;-72
2021/03/17 02:04:39;;;;;;;6.63;3.10;;;;;;;;;;10568646;28;20226;-70
2021/03/17 02:09:41;;;;;;;6.20;3.00;;;;;;;;;;10570381;28;20219;-72
2021/03/17 02:14:51;;;;;;;5.93;2.87;;;;;;;;;;10566940;28;20287;-72
2021/03/17 02:20:14;;;;;;;5.93;2.70;;;;;;;;;;10541157;28;20314;-70
2021/03/17 02:25:48;;;;;;;5.37;2.50;;;;;;;;;;10571330;28;20201;-72
2021/03/17 02:31:07;;;;;;;5.03;2.30;;;;;;;;;;10559480;27;20256;-69
2021/03/17 02:36:12;;;;;;;3.43;1.90;;;;;;;;;;10556285;27;20196;-71
2021/03/17 02:41:18;;;;;;;4.37;2.10;;;;;;;;;;10557648;27;20250;-72
2021/03/17 02:46:21;;;;;;;4.40;2.30;;;;;;;;;;10557016;27;20191;-71
2021/03/17 02:51:28;;;;;;;5.50;2.67;;;;;;;;;;10571911;27;20571;-70
2021/03/17 02:56:31;;;;;;;5.37;2.60;;;;;;;;;;10577494;27;20252;-71
2021/03/17 03:01:34;;;;;;;5.73;3.13;;;;;;;;;;10554707;27;20227;-71
2021/03/17 03:06:37;;;;;;;6.50;3.20;;;;;;;;;;10576696;27;20674;-71
2021/03/17 03:11:39;;;;;;;7.90;3.80;;;;;;;;;;10554413;27;20327;-71
2021/03/17 03:16:41;;;;;;;9.87;4.93;;;;;;;;;;10574775;27;20187;-72
2021/03/17 03:21:44;;;;;;;10.27;5.00;;;;;;;;;;10570674;27;20458;-71
2021/03/17 03:26:48;;;;;;;10.10;5.57;;;;;;;;;;10573020;27;20202;-70
2021/03/17 03:31:50;;;;;;;10.33;5.57;;;;;;;;;;10571210;27;20207;-70
2021/03/17 03:36:52;;;;;;;11.67;6.53;;;;;;;;;;10570712;27;20542;-71
2021/03/17 03:41:54;;;;;;;11.40;6.33;;;;;;;;;;10571713;27;20442;-70
2021/03/17 03:46:56;;;;;;;12.27;7.00;;;;;;;;;;10567226;27;20226;-70
2021/03/17 03:52:02;;;;;;;10.67;6.30;;;;;;;;;;10573211;27;20686;-70
2021/03/17 03:57:07;;;;;;;12.33;7.27;;;;;;;;;;10571845;27;20272;-70
2021/03/17 04:02:11;;;;;;;12.93;6.53;;;;;;;;;;10559369;27;20248;-70
2021/03/17 04:07:15;;;;;;;10.63;6.07;;;;;;;;;;10582259;27;20195;-70
2021/03/17 04:12:18;;;;;;;11.70;5.93;;;;;;;;;;10570412;27;20272;-71
2021/03/17 04:17:22;;;;;;;12.10;6.00;;;;;;;;;;10566793;27;20279;-70
2021/03/17 04:22:26;;;;;;;11.47;6.10;;;;;;;;;;10553556;27;20226;-71
2021/03/17 04:27:28;;;;;;;10.33;5.87;;;;;;;;;;10580817;27;20191;-71
2021/03/17 04:32:30;;;;;;;12.43;6.87;;;;;;;;;;10579172;27;20229;-72
2021/03/17 04:37:33;;;;;;;11.77;5.93;;;;;;;;;;10579585;27;20272;-71
2021/03/17 04:42:35;;;;;;;11.83;5.97;;;;;;;;;;10571824;27;20228;-72
2021/03/17 04:47:38;;;;;;;12.03;6.27;;;;;;;;;;10571908;27;20214;-72
2021/03/17 04:52:42;;;;;;;11.57;6.10;;;;;;;;;;10572722;27;20315;-72
2021/03/17 04:57:44;;;;;;;12.73;6.17;;;;;;;;;;10566642;27;20256;-71
2021/03/17 05:02:49;;;;;;;10.77;5.63;;;;;;;;;;10574015;27;20722;-71
2021/03/17 05:07:53;;;;;;;12.73;6.17;;;;;;;;;;10569574;28;20202;-70
2021/03/17 05:12:54;;;;;;;11.13;6.07;;;;;;;;;;10574143;27;20682;-71
2021/03/17 05:17:56;;;;;;;12.37;6.73;;;;;;;;;;10563064;27;20557;-71
2021/03/17 05:22:59;;;;;;;13.80;7.00;;;;;;;;;;10566872;27;20252;-70
2021/03/17 05:28:04;;;;;;;13.77;6.90;;;;;;;;;;10558007;27;20206;-71
2021/03/17 05:33:07;;;;;;;13.23;6.60;;;;;;;;;;10570584;27;20380;-72
2021/03/17 05:38:10;;;;;;;14.23;7.20;;;;;;;;;;10579093;27;20202;-71
2021/03/17 05:43:12;;;;;;;11.73;6.67;;;;;;;;;;10567759;27;20276;-71
2021/03/17 05:48:15;;;;;;;12.30;7.10;;;;;;;;;;10564833;27;20210;-71
2021/03/17 05:53:18;;;;;;;13.70;6.73;;;;;;;;;;10551237;28;20690;-72
2021/03/17 05:58:20;;;;;;;14.10;7.60;;;;;;;;;;10562903;28;20259;-70
2021/03/17 06:03:24;;;;;;;14.17;7.80;;;;;;;;;;10575609;28;20223;-70
2021/03/17 06:08:29;;;;;;;13.73;8.00;;;;;;;;;;10573558;28;20232;-70
2021/03/17 06:13:33;;;;;;;15.47;8.33;;;;;;;;;;10556973;28;20626;-71
2021/03/17 06:18:36;;;;;;;13.57;8.33;;;;;;;;;;10566763;28;20207;-70
2021/03/17 06:23:39;;;;;;;14.57;9.23;;;;;;;;;;10572927;28;20214;-71
2021/03/17 06:28:41;;;;;;;13.40;7.97;;;;;;;;;;10576528;28;20242;-69
2021/03/17 06:33:42;;;;;;;13.87;7.83;;;;;;;;;;10572687;28;20706;-70
2021/03/17 06:38:46;;;;;;;15.40;8.20;;;;;;;;;;10562132;28;20211;-70
2021/03/17 06:43:49;;;;;;;13.67;8.03;;;;;;;;;;10569642;28;20226;-70
2021/03/17 06:48:50;;;;;;;15.37;8.10;;;;;;;;;;10555007;28;20183;-69
2021/03/17 06:53:54;;;;;;;13.77;8.20;;;;;;;;;;10582153;28;20224;-69
2021/03/17 06:58:57;;;;;;;14.73;8.03;;;;;;;;;;10565987;28;20238;-69
2021/03/17 07:04:00;;;;;;;14.13;8.13;;;;;;;;;;10546683;28;20613;-70
2021/03/17 07:09:14;;;;;;;13.97;8.00;;;;;;;;;;10569913;27;20187;-68
2021/03/17 07:14:22;;;;;;;13.63;8.33;;;;;;;;;;10583445;27;20198;-70
2021/03/17 07:19:35;;;;;;;13.80;8.07;;;;;;;;;;10557842;27;20392;-70
2021/03/17 07:24:39;;;;;;;13.77;8.23;;;;;;;;;;10577686;27;20217;-70
2021/03/17 07:29:41;;;;;;;15.37;9.30;;;;;;;;;;10583577;27;20282;-70
2021/03/17 07:34:44;;;;;;;15.47;9.30;;;;;;;;;;10576365;27;20230;-70
2021/03/17 07:39:48;;;;;;;15.40;9.33;;;;;;;;;;10569346;27;20272;-71
2021/03/17 07:44:50;;;;;;;13.83;8.80;;;;;;;;;;10553195;27;20203;-71
2021/03/17 07:49:51;;;;;;;17.03;9.07;;;;;;;;;;10547743;27;20214;-72
2021/03/17 07:54:56;;;;;;;15.87;9.87;;;;;;;;;;10571974;27;20191;-72
2021/03/17 07:59:58;;;;;;;16.37;9.60;;;;;;;;;;10569880;27;20294;-71
2021/03/17 08:05:00;;;;;;;14.43;8.00;;;;;;;;;;10555080;27;20235;-71
2021/03/17 08:10:03;;;;;;;13.33;7.60;;;;;;;;;;10576983;27;20682;-71
2021/03/17 08:15:06;;;;;;;10.80;6.73;;;;;;;;;;10549785;27;20208;-71
2021/03/17 08:20:14;;;;;;;10.70;7.13;;;;;;;;;;10559220;27;20626;-71
2021/03/17 08:25:30;;;;;;;12.43;7.10;;;;;;;;;;10560803;27;20271;-72
2021/03/17 08:30:33;;;;;;;11.03;6.93;;;;;;;;;;10570915;27;20749;-71
2021/03/17 08:35:56;;;;;;;10.43;6.07;;;;;;;;;;10571205;27;20348;-72
2021/03/17 08:40:57;;;;;;;9.67;6.30;;;;;;;;;;10557645;27;20309;-71
2021/03/17 08:46:05;;;;;;;10.83;5.90;;;;;;;;;;10545334;27;20195;-71
2021/03/17 08:51:07;;;;;;;10.40;6.10;;;;;;;;;;10573239;27;20462;-71
2021/03/17 08:56:25;;;;;;;9.83;5.60;;;;;;;;;;10564089;27;20223;-72
2021/03/17 09:01:32;;;;;;;10.00;5.17;;;;;;;;;;10564265;28;20210;-70
2021/03/17 09:06:34;;;;;;;8.73;5.47;;;;;;;;;;10562453;27;20207;-71
2021/03/17 09:12:00;;;;;;;10.73;6.40;;;;;;;;;;10552297;28;20236;-70
2021/03/17 09:17:09;;;;;;;8.93;5.60;;;;;;;;;;10569899;27;20237;-70
2021/03/17 09:22:26;;;;;;;11.10;6.10;;;;;;;;;;10545014;28;20317;-71
2021/03/17 09:27:27;;;;;;;10.20;6.13;;;;;;;;;;10558714;28;20190;-69
2021/03/17 09:32:39;;;;;;;11.40;6.47;;;;;;;;;;10566267;27;20211;-70
2021/03/17 09:37:42;;;;;;;13.27;7.23;;;;;;;;;;10554369;27;20194;-70
2021/03/17 09:42:44;;;;;;;13.63;6.70;;;;;;;;;;10574890;27;20226;-70
2021/03/17 09:47:47;;;;;;;11.30;5.23;;;;;;;;;;10544097;28;20194;-71
2021/03/17 09:52:49;;;;;;;9.40;4.27;;;;;;;;;;10580904;27;20299;-71
2021/03/17 09:57:56;;;;;;;8.00;3.70;;;;;;;;;;10576206;27;20722;-71
2021/03/17 10:02:59;;;;;;;6.63;2.70;;;;;;;;;;10563614;28;20253;-70
2021/03/17 10:08:01;;;;;;;6.03;2.87;;;;;;;;;;10583601;27;20203;-72
2021/03/17 10:13:03;;;;;;;6.87;2.57;;;;;;;;;;10577189;28;20203;-74
2021/03/17 10:18:06;;;;;;;6.40;3.10;;;;;;;;;;10547128;28;20276;-71
2021/03/17 10:23:08;;;;;;;8.57;4.07;;;;;;;;;;10566670;28;20298;-71
2021/03/17 10:28:11;;;;;;;8.40;5.40;;;;;;;;;;10565899;28;20194;-71
2021/03/17 10:33:20;;;;;;;8.95;5.47;;;;;;;;;;10570525;28;20211;-70
2021/03/17 10:38:25;;;;;;;8.93;6.15;;;;;;;;;;10565831;28;20198;-71
2021/03/17 10:43:31;;;;;;;9.38;6.57;;;;;;;;;;10573338;27;20241;-72
2021/03/17 10:48:33;;;;;;;12.25;7.28;;;;;;;;;;10578081;27;22299;-71
2021/03/17 10:53:36;;;;;;;10.65;6.25;;;;;;;;;;10566347;27;20215;-70
2021/03/17 10:58:40;;;;;;;10.98;7.00;;;;;;;;;;10576227;27;20203;-70
2021/03/17 11:03:43;;;;;;;9.57;6.53;;;;;;;;;;10571380;27;20215;-70
2021/03/17 11:08:46;;;;;;;10.50;6.33;;;;;;;;;;10578985;27;20709;-70
2021/03/17 11:13:49;;;;;;;12.10;7.50;;;;;;;;;;10571448;27;20278;-71
2021/03/17 11:18:52;;;;;;;9.73;5.73;;;;;;;;;;10555077;27;20218;-72
2021/03/17 11:23:54;;;;;;;7.80;4.03;;;;;;;;;;10566528;27;20309;-72
2021/03/17 11:28:56;;;;;;;7.33;4.10;;;;;;;;;;10566830;27;20188;-71
2021/03/17 11:33:59;;;;;;;9.07;4.57;;;;;;;;;;10590472;27;20317;-70
2021/03/17 11:39:04;;;;;;;8.13;4.10;;;;;;;;;;10573529;27;20231;-70
2021/03/17 11:44:06;;;;;;;8.37;3.60;;;;;;;;;;10574268;27;20542;-71
2021/03/17 11:49:08;;;;;;;7.93;3.50;;;;;;;;;;10580728;27;20187;-69
2021/03/17 11:54:11;;;;;;;8.27;3.93;;;;;;;;;;10559729;27;20227;-69
2021/03/17 11:59:12;;;;;;;7.93;3.70;;;;;;;;;;10574961;27;20239;-70
2021/03/17 12:04:15;;;;;;;7.53;3.40;;;;;;;;;;10561676;27;20239;-70
2021/03/17 12:09:16;;;;;;;7.23;3.67;;;;;;;;;;10569487;27;20278;-70
2021/03/17 12:14:18;;;;;;;7.27;2.90;;;;;;;;;;10574678;27;20230;-71
2021/03/17 12:19:20;;;;;;;7.47;3.47;;;;;;;;;;10545754;27;20207;-69
2021/03/17 12:24:22;;;;;;;5.53;2.70;;;;;;;;;;10539325;27;20195;-71
2021/03/17 12:29:24;;;;;;;5.63;2.67;;;;;;;;;;10545330;27;20515;-71
2021/03/17 12:34:28;;;;;;;6.80;2.87;;;;;;;;;;10575494;27;20201;-71
2021/03/17 12:39:30;;;;;;;6.73;2.63;;;;;;;;;;10568718;27;20294;-72
2021/03/17 12:44:31;;;;;;;6.20;2.27;;;;;;;;;;10569846;27;20235;-70
2021/03/17 12:49:34;;;;;;;5.20;2.40;;;;;;;;;;10567283;27;20191;-71
2021/03/17 12:54:35;;;;;;;3.97;1.80;;;;;;;;;;10550361;27;20210;-71
2021/03/17 12:59:37;;;;;;;5.40;2.10;;;;;;;;;;10547099;27;20221;-71
2021/03/17 13:04:42;;;;;;;6.07;2.20;;;;;;;;;;10583659;27;20242;-71
2021/03/17 13:09:44;;;;;;;6.97;2.80;;;;;;;;;;10570606;27;20226;-71
2021/03/17 13:14:46;;;;;;;7.27;3.10;;;;;;;;;;10567444;27;20223;-71
2021/03/17 13:19:48;;;;;;;8.23;3.17;;;;;;;;;;10569525;27;20291;-70
2021/03/17 13:24:50;;;;;;;6.90;3.50;;;;;;;;;;10566726;27;20195;-72
2021/03/17 13:29:59;;;;;;;9.13;3.20;;;;;;;;;;10583847;27;20221;-71
2021/03/17 13:35:02;;;;;;;5.50;2.60;;;;;;;;;;10554752;27;20716;-71
2021/03/17 13:40:06;;;;;;;5.60;2.50;;;;;;;;;;10538285;28;20602;-71
2021/03/17 13:45:10;;;;;;;5.67;2.80;;;;;;;;;;10567829;27;20198;-71
2021/03/17 13:50:14;;;;;;;6.50;2.80;;;;;;;;;;10566456;27;20226;-71
2021/03/17 13:55:17;;;;;;;5.07;2.60;;;;;;;;;;10552842;28;20630;-71
2021/03/17 14:00:19;;;;;;;7.00;3.03;;;;;;;;;;10578267;27;20937;-71
2021/03/17 14:05:23;;;;;;;7.90;3.20;;;;;;;;;;10571706;28;20272;-72
2021/03/17 14:10:27;;;;;;;7.17;2.60;;;;;;;;;;10545038;28;20307;-71
2021/03/17 14:15:29;;;;;;;5.37;2.73;;;;;;;;;;10556026;28;20217;-72
2021/03/17 14:20:33;;;;;;;6.77;2.80;;;;;;;;;;10558929;27;20258;-71
2021/03/17 14:25:36;;;;;;;7.67;2.93;;;;;;;;;;10585041;27;20270;-72
2021/03/17 14:30:38;;;;;;;7.63;3.07;;;;;;;;;;10576589;27;21825;-73
2021/03/17 14:35:41;;;;;;;7.20;3.00;;;;;;;;;;10569548;27;20608;-71
2021/03/17 14:40:43;;;;;;;6.23;2.90;;;;;;;;;;10574242;27;20716;-71
2021/03/17 14:45:44;;;;;;;6.10;3.20;;;;;;;;;;10579428;27;20639;-71
2021/03/17 14:50:48;;;;;;;6.10;3.10;;;;;;;;;;10577895;27;20259;-69
2021/03/17 14:55:49;;;;;;;5.80;3.20;;;;;;;;;;10579045;27;20683;-70
2021/03/17 15:00:51;;;;;;;7.90;3.30;;;;;;;;;;10571970;27;20299;-70
2021/03/17 15:05:54;;;;;;;6.23;3.10;;;;;;;;;;10578527;27;20198;-70
2021/03/17 15:10:56;;;;;;;6.67;3.03;;;;;;;;;;10573456;27;20579;-70
2021/03/17 15:15:57;;;;;;;6.53;2.93;;;;;;;;;;10581805;27;20198;-71
2021/03/17 15:21:00;;;;;;;5.33;2.50;;;;;;;;;;10572117;27;20218;-70
2021/03/17 15:26:02;;;;;;;5.80;2.67;;;;;;;;;;10562985;27;20678;-71
2021/03/17 15:31:04;;;;;;;4.47;2.40;;;;;;;;;;10571645;27;20210;-71
2021/03/17 15:36:06;;;;;;;6.07;2.57;;;;;;;;;;10554977;27;20251;-70
2021/03/17 15:41:08;;;;;;;4.93;2.20;;;;;;;;;;10573039;27;20215;-68
2021/03/17 15:46:10;;;;;;;5.77;2.50;;;;;;;;;;10573356;27;21048;-69
2021/03/17 15:51:12;;;;;;;5.00;2.47;;;;;;;;;;10581140;27;20313;-69
2021/03/17 15:56:14;;;;;;;6.13;2.57;;;;;;;;;;10585060;27;20190;-69
2021/03/17 16:01:15;;;;;;;6.80;2.60;;;;;;;;;;10570580;27;20222;-69
2021/03/17 16:06:18;;;;;;;6.10;2.80;;;;;;;;;;10575468;27;20195;-70
2021/03/17 16:11:20;;;;;;;6.33;2.80;;;;;;;;;;10555672;27;20267;-68
2021/03/17 16:16:28;;;;;;;6.50;2.73;;;;;;;;;;10580727;27;20239;-70
2021/03/17 16:21:31;;;;;;;7.70;2.90;;;;;;;;;;10575059;27;20249;-70
2021/03/17 16:26:32;;;;;;;6.40;2.67;;;;;;;;;;10583402;27;20195;-69
2021/03/17 16:31:34;;;;;;;6.27;3.07;;;;;;;;;;10566535;27;20311;-70
2021/03/17 16:36:37;;;;;;;6.67;2.40;;;;;;;;;;10574177;27;20245;-69
2021/03/17 16:41:40;;;;;;;6.20;2.50;;;;;;;;;;10568350;27;20234;-70
2021/03/17 16:46:43;;;;;;;6.90;2.47;;;;;;;;;;10574333;27;20246;-70
2021/03/17 16:51:45;;;;;;;6.83;3.17;;;;;;;;;;10574218;27;20333;-70
2021/03/17 16:56:47;;;;;;;4.87;2.30;;;;;;;;;;10553509;27;20202;-70
2021/03/17 17:01:48;;;;;;;5.53;2.57;;;;;;;;;;10568911;28;20223;-70
2021/03/17 17:06:51;;;;;;;6.37;2.40;;;;;;;;;;10550947;27;20264;-72
2021/03/17 17:11:52;;;;;;;4.23;1.90;;;;;;;;;;10578580;27;20202;-70
2021/03/17 17:16:54;;;;;;;5.37;1.90;;;;;;;;;;10572588;27;20278;-71
2021/03/17 17:21:56;;;;;;;4.43;2.00;;;;;;;;;;10568172;27;20889;-70
2021/03/17 17:26:59;;;;;;;5.47;1.70;;;;;;;;;;10551822;28;20203;-71
2021/03/17 17:32:01;;;;;;;3.63;1.90;;;;;;;;;;10573821;27;20233;-69
2021/03/17 17:37:04;;;;;;;5.57;2.20;;;;;;;;;;10572987;27;20206;-70
2021/03/17 17:42:05;;;;;;;4.70;2.10;;;;;;;;;;10548727;27;20222;-70
2021/03/17 17:47:10;;;;;;;5.90;2.10;;;;;;;;;;10570554;27;20335;-69
2021/03/17 17:52:12;;;;;;;4.10;1.70;;;;;;;;;;10546790;28;20219;-70
2021/03/17 17:57:14;;;;;;;4.63;1.90;;;;;;;;;;10548838;28;20191;-70
2021/03/17 18:02:16;;;;;;;5.07;2.00;;;;;;;;;;10576349;27;20450;-71
2021/03/17 18:07:18;;;;;;;4.57;1.77;;;;;;;;;;10577248;28;20209;-68
2021/03/17 18:12:20;;;;;;;5.00;2.03;;;;;;;;;;10588345;28;20210;-69
2021/03/17 18:17:21;;;;;;;5.63;2.20;;;;;;;;;;10562059;28;20191;-70
2021/03/17 18:22:24;;;;;;;4.23;1.97;;;;;;;;;;10560647;28;20210;-70
2021/03/17 18:27:25;;;;;;;4.93;2.30;;;;;;;;;;10551727;28;20312;-68
2021/03/17 18:32:27;;;;;;;6.50;1.83;;;;;;;;;;10554670;28;20605;-69
2021/03/17 18:37:29;;;;;;;5.10;2.03;;;;;;;;;;10569516;28;20215;-69
2021/03/17 18:42:31;;;;;;;4.40;2.20;;;;;;;;;;10561045;28;20218;-69
2021/03/17 18:47:33;;;;;;;5.63;2.20;;;;;;;;;;10548380;28;20290;-69
2021/03/17 18:52:36;;;;;;;4.70;2.10;;;;;;;;;;10577493;28;20306;-68
2021/03/17 18:57:39;;;;;;;4.50;2.30;;;;;;;;;;10562858;28;20618;-70
2021/03/17 19:02:40;;;;;;;9.30;2.67;;;;;;;;;;10550546;28;20329;-71
2021/03/17 19:07:43;;;;;;;4.53;2.30;;;;;;;;;;10571271;27;20433;-70
2021/03/17 19:12:45;;;;;;;5.87;2.30;;;;;;;;;;10581735;27;20225;-71
2021/03/17 19:17:46;;;;;;;7.27;2.57;;;;;;;;;;10575690;27;20273;-70
2021/03/17 19:22:49;;;;;;;7.77;2.60;;;;;;;;;;10572392;27;20285;-71
2021/03/17 19:27:52;;;;;;;6.50;2.90;;;;;;;;;;10577981;27;20198;-70
2021/03/17 19:32:54;;;;;;;6.33;2.60;;;;;;;;;;10547534;28;20215;-71
2021/03/17 19:37:56;;;;;;;6.27;2.70;;;;;;;;;;10555688;28;20557;-71
2021/03/17 19:42:58;;;;;;;7.63;3.20;;;;;;;;;;10570198;27;20219;-71
2021/03/17 19:47:59;;;;;;;8.27;3.00;;;;;;;;;;10572285;28;20195;-68
2021/03/17 19:53:02;;;;;;;8.00;3.53;;;;;;;;;;10571025;28;20297;-69
2021/03/17 19:58:04;;;;;;;5.63;2.80;;;;;;;;;;10562180;28;20678;-70
2021/03/17 20:03:07;;;;;;;6.23;2.80;;;;;;;;;;10574518;28;20214;-69
2021/03/17 20:08:11;;;;;;;7.73;3.10;;;;;;;;;;10546851;28;20234;-70
2021/03/17 20:13:13;;;;;;;6.63;2.93;;;;;;;;;;10567693;28;20310;-70
2021/03/17 20:18:15;;;;;;;9.20;3.30;;;;;;;;;;10572900;28;20234;-70
2021/03/17 20:23:24;;;;;;;7.47;3.07;;;;;;;;;;10566595;27;20219;-69
2021/03/17 20:28:27;;;;;;;8.70;3.60;;;;;;;;;;10571383;28;20195;-69
2021/03/17 20:33:31;;;;;;;9.77;3.27;;;;;;;;;;10569553;28;20211;-70
2021/03/17 20:38:34;;;;;;;7.90;3.40;;;;;;;;;;10570838;28;20675;-70
2021/03/17 20:43:37;;;;;;;8.53;3.70;;;;;;;;;;10570795;28;20219;-69
2021/03/17 20:48:38;;;;;;;7.73;3.80;;;;;;;;;;10567598;28;20251;-69
2021/03/17 20:53:41;;;;;;;9.90;3.63;;;;;;;;;;10550029;28;20214;-69
2021/03/17 20:58:42;;;;;;;6.63;3.20;;;;;;;;;;10560944;28;20197;-68
2021/03/17 21:03:44;;;;;;;6.63;2.80;;;;;;;;;;10574484;28;20237;-68
2021/03/17 21:08:47;;;;;;;8.03;3.07;;;;;;;;;;10564599;28;20228;-68
2021/03/17 21:13:49;;;;;;;5.70;2.73;;;;;;;;;;10567079;28;20745;-69
2021/03/17 21:18:51;;;;;;;7.63;2.90;;;;;;;;;;10566574;28;20191;-70
2021/03/17 21:23:53;;;;;;;6.13;3.00;;;;;;;;;;10559762;28;20988;-70
2021/03/17 21:28:55;;;;;;;6.47;3.30;;;;;;;;;;10564824;28;20218;-70
2021/03/17 21:33:59;;;;;;;7.67;3.20;;;;;;;;;;10566857;28;20242;-69
2021/03/17 21:39:02;;;;;;;9.00;3.33;;;;;;;;;;10563940;27;20254;-70
2021/03/17 21:44:04;;;;;;;7.30;3.07;;;;;;;;;;10562713;27;20215;-69
2021/03/17 21:49:06;;;;;;;6.13;2.80;;;;;;;;;;10567080;27;20295;-68
2021/03/17 21:54:10;;;;;;;6.77;2.87;;;;;;;;;;10553096;27;20210;-70
2021/03/17 21:59:12;;;;;;;7.00;2.83;;;;;;;;;;10548444;28;20194;-69
2021/03/17 22:04:13;;;;;;;7.70;3.30;;;;;;;;;;10562321;28;22379;-70
2021/03/17 22:09:16;;;;;;;6.60;2.83;;;;;;;;;;10567991;28;20904;-70
2021/03/17 22:14:17;;;;;;;8.40;3.27;;;;;;;;;;10570165;28;20215;-70
2021/03/17 22:19:19;;;;;;;7.33;3.03;;;;;;;;;;10565227;28;20480;-70
2021/03/17 22:24:21;;;;;;;8.27;3.10;;;;;;;;;;10547751;28;20219;-70
2021/03/17 22:29:23;;;;;;;6.87;3.13;;;;;;;;;;10568981;28;20203;-69
2021/03/17 22:34:25;;;;;;;8.17;3.57;;;;;;;;;;10568776;28;20355;-69
2021/03/17 22:39:27;;;;;;;7.70;3.47;;;;;;;;;;10574201;27;20204;-67
2021/03/17 22:44:29;;;;;;;7.50;3.33;;;;;;;;;;10573186;27;20211;-68
2021/03/17 22:49:31;;;;;;;7.67;3.40;;;;;;;;;;10575341;27;20241;-68
2021/03/17 22:54:33;;;;;;;6.33;3.10;;;;;;;;;;10576216;27;20194;-69
2021/03/17 22:59:35;;;;;;;7.87;3.77;;;;;;;;;;10571914;27;20216;-69
2021/03/17 23:04:36;;;;;;;8.37;3.70;;;;;;;;;;10571403;27;20211;-69
2021/03/17 23:09:42;;;;;;;7.43;3.57;;;;;;;;;;10576854;27;20673;-69
2021/03/17 23:14:47;;;;;;;9.87;3.73;;;;;;;;;;10553820;28;20191;-69
2021/03/17 23:19:49;;;;;;;9.77;4.03;;;;;;;;;;10571707;27;20204;-70
2021/03/17 23:24:52;;;;;;;8.37;3.70;;;;;;;;;;10555462;27;20294;-70
2021/03/17 23:29:56;;;;;;;8.33;3.70;;;;;;;;;;10551693;27;20254;-70
2021/03/17 23:35:00;;;;;;;10.67;4.40;;;;;;;;;;10568645;27;20262;-71
2021/03/17 23:40:10;;;;;;;8.17;3.43;;;;;;;;;;10552072;27;20573;-70
2021/03/17 23:45:12;;;;;;;8.13;4.10;;;;;;;;;;10570045;27;20222;-71
2021/03/17 23:50:17;;;;;;;8.60;4.00;;;;;;;;;;10562969;27;20675;-69
2021/03/17 23:55:22;;;;;;;8.00;4.00;;;;;;;;;;10582593;27;20226;-68
